Terminal Aerodrome Forecast
Issued by NWS

Home | Current Version | Previous Version | Graphics & Text | Print | Product List | Glossary On
Versions: 1 2 3 4 5 6 7 8 9 10 11 12 13 14 15 16 17 18 19 20 21 22 23 24 25
406
FTUS43 KLOT 130526
TAFDPA
TAF
KDPA 130526Z 1306/1406 20007KT P6SM SCT035 OVC060
     FM131100 17011KT P6SM OVC035
      TEMPO 1311/1314 3SM -SN SCT020 OVC030
     FM131500 19013KT P6SM FEW030 OVC060
     FM131700 23014G21KT 6SM -SN OVC030
      TEMPO 1318/1320 1 1/2SM -SN BKN015
     FM132100 31014G26KT P6SM OVC018
     FM140000 35016G28KT 6SM -SHSN OVC020
      TEMPO 1402/1405 02012G18KT 1 1/2SM -SN BKN015=

USA.gov is the U.S. government's official web portal to all federal, state and local government web resources and services.